sensor_id;sensor_type;location;lat;lon;timestamp;P1;durP1;ratioP1;P2;durP2;ratioP2
28311;SDS011;15572;48.810;9.148;2022-12-18T00:02:28;57.50;;;24.17;;
28311;SDS011;15572;48.810;9.148;2022-12-18T00:07:25;62.63;;;24.10;;
28311;SDS011;15572;48.810;9.148;2022-12-18T00:12:23;57.67;;;24.30;;
28311;SDS011;15572;48.810;9.148;2022-12-18T00:17:19;62.27;;;23.93;;
28311;SDS011;15572;48.810;9.148;2022-12-18T00:22:16;59.50;;;23.77;;
28311;SDS011;15572;48.810;9.148;2022-12-18T00:27:12;62.83;;;23.47;;
28311;SDS011;15572;48.810;9.148;2022-12-18T00:32:10;59.27;;;23.27;;
28311;SDS011;15572;48.810;9.148;2022-12-18T00:37:07;57.30;;;22.50;;
28311;SDS011;15572;48.810;9.148;2022-12-18T00:42:03;52.97;;;22.60;;
28311;SDS011;15572;48.810;9.148;2022-12-18T00:47:18;61.40;;;22.77;;
28311;SDS011;15572;48.810;9.148;2022-12-18T00:52:15;54.90;;;22.33;;
28311;SDS011;15572;48.810;9.148;2022-12-18T00:57:12;49.43;;;20.90;;
28311;SDS011;15572;48.810;9.148;2022-12-18T01:02:08;57.33;;;22.03;;
28311;SDS011;15572;48.810;9.148;2022-12-18T01:07:06;55.70;;;21.40;;
28311;SDS011;15572;48.810;9.148;2022-12-18T01:12:02;50.53;;;21.53;;
28311;SDS011;15572;48.810;9.148;2022-12-18T01:16:59;48.63;;;20.37;;
28311;SDS011;15572;48.810;9.148;2022-12-18T01:21:57;53.67;;;20.80;;
28311;SDS011;15572;48.810;9.148;2022-12-18T01:26:56;52.73;;;21.80;;
28311;SDS011;15572;48.810;9.148;2022-12-18T01:31:54;54.33;;;21.57;;
28311;SDS011;15572;48.810;9.148;2022-12-18T01:36:51;52.17;;;21.33;;
28311;SDS011;15572;48.810;9.148;2022-12-18T01:41:48;53.77;;;21.10;;
28311;SDS011;15572;48.810;9.148;2022-12-18T01:47:01;48.77;;;21.27;;
28311;SDS011;15572;48.810;9.148;2022-12-18T01:51:58;54.40;;;21.63;;
28311;SDS011;15572;48.810;9.148;2022-12-18T01:56:54;51.53;;;21.60;;
28311;SDS011;15572;48.810;9.148;2022-12-18T02:01:51;46.03;;;20.83;;
28311;SDS011;15572;48.810;9.148;2022-12-18T02:06:49;52.33;;;21.20;;
28311;SDS011;15572;48.810;9.148;2022-12-18T02:11:52;55.93;;;21.63;;
28311;SDS011;15572;48.810;9.148;2022-12-18T02:16:57;60.70;;;22.40;;
28311;SDS011;15572;48.810;9.148;2022-12-18T02:22:03;63.67;;;22.87;;
28311;SDS011;15572;48.810;9.148;2022-12-18T02:27:11;57.60;;;22.67;;
28311;SDS011;15572;48.810;9.148;2022-12-18T02:32:10;56.83;;;23.43;;
28311;SDS011;15572;48.810;9.148;2022-12-18T02:37:10;56.53;;;21.73;;
28311;SDS011;15572;48.810;9.148;2022-12-18T02:42:12;62.27;;;23.43;;
28311;SDS011;15572;48.810;9.148;2022-12-18T02:47:09;57.30;;;22.53;;
28311;SDS011;15572;48.810;9.148;2022-12-18T02:52:09;52.73;;;22.50;;
28311;SDS011;15572;48.810;9.148;2022-12-18T02:57:16;51.50;;;22.10;;
28311;SDS011;15572;48.810;9.148;2022-12-18T03:02:21;51.47;;;21.67;;
28311;SDS011;15572;48.810;9.148;2022-12-18T03:07:24;52.00;;;21.10;;
28311;SDS011;15572;48.810;9.148;2022-12-18T03:12:32;60.60;;;21.63;;
28311;SDS011;15572;48.810;9.148;2022-12-18T03:17:32;58.87;;;23.03;;
28311;SDS011;15572;48.810;9.148;2022-12-18T03:22:30;56.90;;;22.60;;
28311;SDS011;15572;48.810;9.148;2022-12-18T03:27:28;55.20;;;22.93;;
28311;SDS011;15572;48.810;9.148;2022-12-18T03:32:29;54.27;;;21.20;;
28311;SDS011;15572;48.810;9.148;2022-12-18T03:37:29;54.07;;;22.30;;
28311;SDS011;15572;48.810;9.148;2022-12-18T03:42:27;64.17;;;22.20;;
28311;SDS011;15572;48.810;9.148;2022-12-18T03:47:27;56.93;;;21.03;;
28311;SDS011;15572;48.810;9.148;2022-12-18T03:52:28;52.87;;;21.67;;
28311;SDS011;15572;48.810;9.148;2022-12-18T03:57:28;49.93;;;20.80;;
28311;SDS011;15572;48.810;9.148;2022-12-18T04:02:28;55.23;;;22.10;;
28311;SDS011;15572;48.810;9.148;2022-12-18T04:07:27;48.10;;;20.53;;
28311;SDS011;15572;48.810;9.148;2022-12-18T04:12:25;49.37;;;20.03;;
28311;SDS011;15572;48.810;9.148;2022-12-18T04:17:22;50.13;;;20.10;;
28311;SDS011;15572;48.810;9.148;2022-12-18T04:22:20;51.10;;;19.23;;
28311;SDS011;15572;48.810;9.148;2022-12-18T04:27:16;50.70;;;19.57;;
28311;SDS011;15572;48.810;9.148;2022-12-18T04:32:13;50.20;;;20.93;;
28311;SDS011;15572;48.810;9.148;2022-12-18T04:37:09;47.40;;;19.23;;
28311;SDS011;15572;48.810;9.148;2022-12-18T04:42:07;50.00;;;19.30;;
28311;SDS011;15572;48.810;9.148;2022-12-18T04:47:04;44.30;;;19.33;;
28311;SDS011;15572;48.810;9.148;2022-12-18T04:52:00;41.40;;;17.50;;
28311;SDS011;15572;48.810;9.148;2022-12-18T04:56:57;42.13;;;18.43;;
28311;SDS011;15572;48.810;9.148;2022-12-18T05:01:54;40.00;;;16.43;;
28311;SDS011;15572;48.810;9.148;2022-12-18T05:06:51;40.03;;;18.37;;
28311;SDS011;15572;48.810;9.148;2022-12-18T05:11:47;39.57;;;17.20;;
28311;SDS011;15572;48.810;9.148;2022-12-18T05:16:44;38.03;;;16.97;;
28311;SDS011;15572;48.810;9.148;2022-12-18T05:21:42;41.00;;;18.23;;
28311;SDS011;15572;48.810;9.148;2022-12-18T05:26:38;40.17;;;17.90;;
28311;SDS011;15572;48.810;9.148;2022-12-18T05:31:35;44.20;;;19.03;;
28311;SDS011;15572;48.810;9.148;2022-12-18T05:36:31;43.33;;;18.20;;
28311;SDS011;15572;48.810;9.148;2022-12-18T05:41:29;40.37;;;17.53;;
28311;SDS011;15572;48.810;9.148;2022-12-18T05:46:26;46.53;;;17.77;;
28311;SDS011;15572;48.810;9.148;2022-12-18T05:51:22;42.73;;;18.70;;
28311;SDS011;15572;48.810;9.148;2022-12-18T05:56:20;37.40;;;16.70;;
28311;SDS011;15572;48.810;9.148;2022-12-18T06:01:20;39.13;;;16.77;;
28311;SDS011;15572;48.810;9.148;2022-12-18T06:06:18;40.90;;;17.17;;
28311;SDS011;15572;48.810;9.148;2022-12-18T06:11:17;34.50;;;15.57;;
28311;SDS011;15572;48.810;9.148;2022-12-18T06:16:15;38.70;;;16.87;;
28311;SDS011;15572;48.810;9.148;2022-12-18T06:21:13;37.60;;;16.87;;
28311;SDS011;15572;48.810;9.148;2022-12-18T06:26:10;42.80;;;16.63;;
28311;SDS011;15572;48.810;9.148;2022-12-18T06:31:08;37.57;;;15.80;;
28311;SDS011;15572;48.810;9.148;2022-12-18T06:36:06;36.80;;;16.73;;
28311;SDS011;15572;48.810;9.148;2022-12-18T06:41:07;37.50;;;16.63;;
28311;SDS011;15572;48.810;9.148;2022-12-18T06:46:04;41.90;;;17.37;;
28311;SDS011;15572;48.810;9.148;2022-12-18T06:51:02;36.03;;;16.70;;
28311;SDS011;15572;48.810;9.148;2022-12-18T06:56:00;38.37;;;15.90;;
28311;SDS011;15572;48.810;9.148;2022-12-18T07:01:00;44.50;;;17.57;;
28311;SDS011;15572;48.810;9.148;2022-12-18T07:05:57;41.73;;;18.03;;
28311;SDS011;15572;48.810;9.148;2022-12-18T07:10:53;35.63;;;15.30;;
28311;SDS011;15572;48.810;9.148;2022-12-18T07:15:50;38.27;;;15.83;;
28311;SDS011;15572;48.810;9.148;2022-12-18T07:20:48;38.53;;;16.73;;
28311;SDS011;15572;48.810;9.148;2022-12-18T07:25:44;43.40;;;15.40;;
28311;SDS011;15572;48.810;9.148;2022-12-18T07:30:41;37.07;;;16.37;;
28311;SDS011;15572;48.810;9.148;2022-12-18T07:35:37;37.93;;;16.30;;
28311;SDS011;15572;48.810;9.148;2022-12-18T07:40:35;34.90;;;15.40;;
28311;SDS011;15572;48.810;9.148;2022-12-18T07:45:32;37.40;;;15.47;;
28311;SDS011;15572;48.810;9.148;2022-12-18T07:50:28;40.47;;;16.87;;
28311;SDS011;15572;48.810;9.148;2022-12-18T07:55:25;36.10;;;16.63;;
28311;SDS011;15572;48.810;9.148;2022-12-18T08:00:22;60.50;;;21.37;;
28311;SDS011;15572;48.810;9.148;2022-12-18T08:05:19;46.83;;;18.67;;
28311;SDS011;15572;48.810;9.148;2022-12-18T08:10:16;53.93;;;19.47;;
28311;SDS011;15572;48.810;9.148;2022-12-18T08:15:15;43.87;;;19.47;;
28311;SDS011;15572;48.810;9.148;2022-12-18T08:20:19;42.83;;;18.87;;
28311;SDS011;15572;48.810;9.148;2022-12-18T08:25:16;46.33;;;19.20;;
28311;SDS011;15572;48.810;9.148;2022-12-18T08:30:15;46.13;;;18.43;;
28311;SDS011;15572;48.810;9.148;2022-12-18T08:35:12;48.50;;;20.37;;
28311;SDS011;15572;48.810;9.148;2022-12-18T08:40:10;45.83;;;20.77;;
28311;SDS011;15572;48.810;9.148;2022-12-18T08:45:08;49.37;;;21.03;;
28311;SDS011;15572;48.810;9.148;2022-12-18T08:50:05;49.13;;;21.47;;
28311;SDS011;15572;48.810;9.148;2022-12-18T08:55:12;60.00;;;21.63;;
28311;SDS011;15572;48.810;9.148;2022-12-18T09:00:09;45.27;;;20.47;;
28311;SDS011;15572;48.810;9.148;2022-12-18T09:05:08;44.73;;;19.83;;
28311;SDS011;15572;48.810;9.148;2022-12-18T09:10:05;47.27;;;20.10;;
28311;SDS011;15572;48.810;9.148;2022-12-18T09:15:04;51.60;;;21.57;;
28311;SDS011;15572;48.810;9.148;2022-12-18T09:20:01;49.23;;;20.73;;
28311;SDS011;15572;48.810;9.148;2022-12-18T09:24:58;50.43;;;20.43;;
28311;SDS011;15572;48.810;9.148;2022-12-18T09:29:54;52.83;;;22.03;;
28311;SDS011;15572;48.810;9.148;2022-12-18T09:34:52;48.13;;;19.87;;
28311;SDS011;15572;48.810;9.148;2022-12-18T09:39:48;53.40;;;20.93;;
28311;SDS011;15572;48.810;9.148;2022-12-18T09:44:46;50.93;;;22.73;;
28311;SDS011;15572;48.810;9.148;2022-12-18T09:49:47;49.33;;;22.27;;
28311;SDS011;15572;48.810;9.148;2022-12-18T09:54:48;52.53;;;23.03;;
28311;SDS011;15572;48.810;9.148;2022-12-18T09:59:50;51.70;;;21.67;;
28311;SDS011;15572;48.810;9.148;2022-12-18T10:04:54;50.70;;;21.60;;
28311;SDS011;15572;48.810;9.148;2022-12-18T10:10:01;52.20;;;22.10;;
28311;SDS011;15572;48.810;9.148;2022-12-18T10:15:04;55.63;;;22.97;;
28311;SDS011;15572;48.810;9.148;2022-12-18T10:20:09;52.23;;;22.53;;
28311;SDS011;15572;48.810;9.148;2022-12-18T10:25:15;51.00;;;22.83;;
28311;SDS011;15572;48.810;9.148;2022-12-18T10:30:19;50.03;;;22.07;;
28311;SDS011;15572;48.810;9.148;2022-12-18T10:35:19;55.00;;;22.43;;
28311;SDS011;15572;48.810;9.148;2022-12-18T10:40:18;51.87;;;22.23;;
28311;SDS011;15572;48.810;9.148;2022-12-18T10:45:16;55.30;;;22.30;;
28311;SDS011;15572;48.810;9.148;2022-12-18T10:50:18;51.60;;;22.00;;
28311;SDS011;15572;48.810;9.148;2022-12-18T10:55:21;57.10;;;22.63;;
28311;SDS011;15572;48.810;9.148;2022-12-18T11:00:22;54.83;;;22.87;;
28311;SDS011;15572;48.810;9.148;2022-12-18T11:05:24;53.07;;;22.47;;
28311;SDS011;15572;48.810;9.148;2022-12-18T11:10:28;56.93;;;23.77;;
28311;SDS011;15572;48.810;9.148;2022-12-18T11:15:27;52.10;;;23.23;;
28311;SDS011;15572;48.810;9.148;2022-12-18T11:20:29;52.27;;;23.27;;
28311;SDS011;15572;48.810;9.148;2022-12-18T11:25:29;53.77;;;22.80;;
28311;SDS011;15572;48.810;9.148;2022-12-18T11:30:27;52.47;;;22.57;;
28311;SDS011;15572;48.810;9.148;2022-12-18T11:35:30;53.47;;;22.00;;
28311;SDS011;15572;48.810;9.148;2022-12-18T11:40:36;46.37;;;21.13;;
28311;SDS011;15572;48.810;9.148;2022-12-18T11:45:35;50.17;;;22.20;;
28311;SDS011;15572;48.810;9.148;2022-12-18T11:50:41;48.67;;;21.10;;
28311;SDS011;15572;48.810;9.148;2022-12-18T11:55:47;46.67;;;20.10;;
28311;SDS011;15572;48.810;9.148;2022-12-18T12:01:02;45.23;;;20.03;;
28311;SDS011;15572;48.810;9.148;2022-12-18T12:06:10;47.83;;;20.83;;
28311;SDS011;15572;48.810;9.148;2022-12-18T12:11:20;44.27;;;19.83;;
28311;SDS011;15572;48.810;9.148;2022-12-18T12:16:24;40.03;;;18.77;;
28311;SDS011;15572;48.810;9.148;2022-12-18T12:21:27;42.07;;;17.93;;
28311;SDS011;15572;48.810;9.148;2022-12-18T12:26:33;40.33;;;18.00;;
28311;SDS011;15572;48.810;9.148;2022-12-18T12:31:46;42.63;;;18.07;;
28311;SDS011;15572;48.810;9.148;2022-12-18T12:36:58;44.77;;;19.57;;
28311;SDS011;15572;48.810;9.148;2022-12-18T12:42:08;41.90;;;19.40;;
28311;SDS011;15572;48.810;9.148;2022-12-18T12:47:41;40.83;;;18.40;;
28311;SDS011;15572;48.810;9.148;2022-12-18T12:52:42;45.83;;;19.63;;
28311;SDS011;15572;48.810;9.148;2022-12-18T12:57:43;42.73;;;19.33;;
28311;SDS011;15572;48.810;9.148;2022-12-18T13:02:44;46.83;;;20.03;;
28311;SDS011;15572;48.810;9.148;2022-12-18T13:07:47;42.97;;;19.27;;
28311;SDS011;15572;48.810;9.148;2022-12-18T13:12:56;43.93;;;19.80;;
28311;SDS011;15572;48.810;9.148;2022-12-18T13:18:02;47.10;;;20.73;;
28311;SDS011;15572;48.810;9.148;2022-12-18T13:23:01;46.77;;;20.13;;
28311;SDS011;15572;48.810;9.148;2022-12-18T13:28:50;41.03;;;19.47;;
28311;SDS011;15572;48.810;9.148;2022-12-18T13:33:49;44.83;;;19.03;;
28311;SDS011;15572;48.810;9.148;2022-12-18T13:38:46;41.23;;;18.10;;
28311;SDS011;15572;48.810;9.148;2022-12-18T13:43:43;43.37;;;19.00;;
28311;SDS011;15572;48.810;9.148;2022-12-18T13:48:40;41.77;;;18.87;;
28311;SDS011;15572;48.810;9.148;2022-12-18T13:53:49;42.50;;;19.77;;
28311;SDS011;15572;48.810;9.148;2022-12-18T14:04:10;46.00;;;19.97;;
28311;SDS011;15572;48.810;9.148;2022-12-18T14:09:10;41.90;;;19.50;;
28311;SDS011;15572;48.810;9.148;2022-12-18T14:14:10;42.07;;;19.27;;
28311;SDS011;15572;48.810;9.148;2022-12-18T14:19:11;42.50;;;19.77;;
28311;SDS011;15572;48.810;9.148;2022-12-18T14:24:12;41.77;;;19.37;;
28311;SDS011;15572;48.810;9.148;2022-12-18T14:29:18;46.60;;;20.30;;
28311;SDS011;15572;48.810;9.148;2022-12-18T14:34:18;45.43;;;21.50;;
28311;SDS011;15572;48.810;9.148;2022-12-18T14:39:22;51.13;;;22.23;;
28311;SDS011;15572;48.810;9.148;2022-12-18T14:44:20;51.80;;;23.57;;
28311;SDS011;15572;48.810;9.148;2022-12-18T14:49:19;52.67;;;23.37;;
28311;SDS011;15572;48.810;9.148;2022-12-18T14:54:19;51.93;;;23.17;;
28311;SDS011;15572;48.810;9.148;2022-12-18T14:59:19;52.73;;;23.63;;
28311;SDS011;15572;48.810;9.148;2022-12-18T15:04:25;56.07;;;23.83;;
28311;SDS011;15572;48.810;9.148;2022-12-18T15:09:24;58.13;;;24.60;;
28311;SDS011;15572;48.810;9.148;2022-12-18T15:14:22;60.70;;;26.90;;
28311;SDS011;15572;48.810;9.148;2022-12-18T15:19:31;60.87;;;26.47;;
28311;SDS011;15572;48.810;9.148;2022-12-18T15:24:31;55.50;;;24.23;;
28311;SDS011;15572;48.810;9.148;2022-12-18T15:29:28;58.13;;;24.40;;
28311;SDS011;15572;48.810;9.148;2022-12-18T15:34:25;55.43;;;23.80;;
28311;SDS011;15572;48.810;9.148;2022-12-18T15:39:24;55.17;;;24.07;;
28311;SDS011;15572;48.810;9.148;2022-12-18T15:44:22;54.03;;;23.33;;
28311;SDS011;15572;48.810;9.148;2022-12-18T15:49:20;54.43;;;23.57;;
28311;SDS011;15572;48.810;9.148;2022-12-18T15:54:16;70.43;;;27.60;;
28311;SDS011;15572;48.810;9.148;2022-12-18T15:59:34;56.47;;;24.07;;
28311;SDS011;15572;48.810;9.148;2022-12-18T16:04:31;68.23;;;28.00;;
28311;SDS011;15572;48.810;9.148;2022-12-18T16:09:27;79.23;;;31.13;;
28311;SDS011;15572;48.810;9.148;2022-12-18T16:14:25;58.13;;;25.33;;
28311;SDS011;15572;48.810;9.148;2022-12-18T16:19:24;59.37;;;25.97;;
28311;SDS011;15572;48.810;9.148;2022-12-18T16:24:21;58.10;;;26.37;;
28311;SDS011;15572;48.810;9.148;2022-12-18T16:29:19;63.53;;;26.43;;
28311;SDS011;15572;48.810;9.148;2022-12-18T16:34:20;58.97;;;24.13;;
28311;SDS011;15572;48.810;9.148;2022-12-18T16:39:19;55.77;;;25.37;;
28311;SDS011;15572;48.810;9.148;2022-12-18T16:44:16;59.43;;;25.47;;
28311;SDS011;15572;48.810;9.148;2022-12-18T16:49:13;58.53;;;24.60;;
28311;SDS011;15572;48.810;9.148;2022-12-18T16:54:10;56.23;;;23.47;;
28311;SDS011;15572;48.810;9.148;2022-12-18T16:59:10;53.13;;;23.23;;
28311;SDS011;15572;48.810;9.148;2022-12-18T17:04:07;55.60;;;23.73;;
28311;SDS011;15572;48.810;9.148;2022-12-18T17:09:05;54.87;;;23.70;;
28311;SDS011;15572;48.810;9.148;2022-12-18T17:14:05;57.63;;;24.83;;
28311;SDS011;15572;48.810;9.148;2022-12-18T17:19:03;58.23;;;24.10;;
28311;SDS011;15572;48.810;9.148;2022-12-18T17:24:00;59.57;;;24.43;;
28311;SDS011;15572;48.810;9.148;2022-12-18T17:28:56;56.03;;;23.57;;
28311;SDS011;15572;48.810;9.148;2022-12-18T17:33:54;59.03;;;24.33;;
28311;SDS011;15572;48.810;9.148;2022-12-18T17:38:53;58.13;;;24.10;;
28311;SDS011;15572;48.810;9.148;2022-12-18T17:43:51;55.63;;;24.53;;
28311;SDS011;15572;48.810;9.148;2022-12-18T17:48:48;57.03;;;26.57;;
28311;SDS011;15572;48.810;9.148;2022-12-18T17:53:44;56.83;;;25.30;;
28311;SDS011;15572;48.810;9.148;2022-12-18T17:58:42;66.10;;;27.03;;
28311;SDS011;15572;48.810;9.148;2022-12-18T18:03:39;65.03;;;26.70;;
28311;SDS011;15572;48.810;9.148;2022-12-18T18:08:35;58.70;;;25.60;;
28311;SDS011;15572;48.810;9.148;2022-12-18T18:13:32;61.43;;;26.13;;
28311;SDS011;15572;48.810;9.148;2022-12-18T18:18:47;58.63;;;25.67;;
28311;SDS011;15572;48.810;9.148;2022-12-18T18:23:44;56.57;;;24.40;;
28311;SDS011;15572;48.810;9.148;2022-12-18T18:28:40;56.63;;;24.17;;
28311;SDS011;15572;48.810;9.148;2022-12-18T18:33:37;52.17;;;24.17;;
28311;SDS011;15572;48.810;9.148;2022-12-18T18:38:35;57.93;;;24.53;;
28311;SDS011;15572;48.810;9.148;2022-12-18T18:43:31;57.67;;;23.50;;
28311;SDS011;15572;48.810;9.148;2022-12-18T18:48:30;57.53;;;24.30;;
28311;SDS011;15572;48.810;9.148;2022-12-18T18:53:28;52.77;;;23.13;;
28311;SDS011;15572;48.810;9.148;2022-12-18T18:58:27;57.13;;;23.53;;
28311;SDS011;15572;48.810;9.148;2022-12-18T19:03:24;51.90;;;23.53;;
28311;SDS011;15572;48.810;9.148;2022-12-18T19:08:21;54.03;;;21.67;;
28311;SDS011;15572;48.810;9.148;2022-12-18T19:13:18;56.13;;;23.57;;
28311;SDS011;15572;48.810;9.148;2022-12-18T19:18:22;55.17;;;23.57;;
28311;SDS011;15572;48.810;9.148;2022-12-18T19:23:18;52.77;;;21.93;;
28311;SDS011;15572;48.810;9.148;2022-12-18T19:28:15;56.17;;;22.83;;
28311;SDS011;15572;48.810;9.148;2022-12-18T19:33:11;50.13;;;21.83;;
28311;SDS011;15572;48.810;9.148;2022-12-18T19:38:09;52.57;;;22.33;;
28311;SDS011;15572;48.810;9.148;2022-12-18T19:43:06;56.57;;;23.10;;
28311;SDS011;15572;48.810;9.148;2022-12-18T19:48:03;51.13;;;22.40;;
28311;SDS011;15572;48.810;9.148;2022-12-18T19:53:00;55.97;;;23.57;;
28311;SDS011;15572;48.810;9.148;2022-12-18T19:57:58;54.37;;;24.53;;
28311;SDS011;15572;48.810;9.148;2022-12-18T20:02:54;58.63;;;25.03;;
28311;SDS011;15572;48.810;9.148;2022-12-18T20:07:51;58.03;;;24.33;;
28311;SDS011;15572;48.810;9.148;2022-12-18T20:12:47;55.67;;;23.93;;
28311;SDS011;15572;48.810;9.148;2022-12-18T20:17:45;58.80;;;23.93;;
28311;SDS011;15572;48.810;9.148;2022-12-18T20:22:41;55.67;;;23.30;;
28311;SDS011;15572;48.810;9.148;2022-12-18T20:27:38;57.23;;;23.97;;
28311;SDS011;15572;48.810;9.148;2022-12-18T20:32:34;66.37;;;27.60;;
28311;SDS011;15572;48.810;9.148;2022-12-18T20:37:32;64.97;;;28.37;;
28311;SDS011;15572;48.810;9.148;2022-12-18T20:42:29;68.73;;;28.03;;
28311;SDS011;15572;48.810;9.148;2022-12-18T20:47:25;55.67;;;24.27;;
28311;SDS011;15572;48.810;9.148;2022-12-18T20:52:22;54.00;;;24.50;;
28311;SDS011;15572;48.810;9.148;2022-12-18T20:57:20;49.87;;;22.17;;
28311;SDS011;15572;48.810;9.148;2022-12-18T21:02:16;50.33;;;23.13;;
28311;SDS011;15572;48.810;9.148;2022-12-18T21:07:13;51.97;;;22.87;;
28311;SDS011;15572;48.810;9.148;2022-12-18T21:12:10;53.30;;;22.80;;
28311;SDS011;15572;48.810;9.148;2022-12-18T21:17:29;57.57;;;24.90;;
28311;SDS011;15572;48.810;9.148;2022-12-18T21:22:26;57.67;;;24.30;;
28311;SDS011;15572;48.810;9.148;2022-12-18T21:27:22;54.93;;;23.37;;
28311;SDS011;15572;48.810;9.148;2022-12-18T21:32:19;60.07;;;24.20;;
28311;SDS011;15572;48.810;9.148;2022-12-18T21:37:16;56.80;;;24.13;;
28311;SDS011;15572;48.810;9.148;2022-12-18T21:42:13;55.30;;;23.40;;
28311;SDS011;15572;48.810;9.148;2022-12-18T21:47:27;56.90;;;24.17;;
28311;SDS011;15572;48.810;9.148;2022-12-18T21:52:25;62.83;;;27.13;;
28311;SDS011;15572;48.810;9.148;2022-12-18T21:57:21;64.23;;;28.40;;
28311;SDS011;15572;48.810;9.148;2022-12-18T22:02:19;61.03;;;25.37;;
28311;SDS011;15572;48.810;9.148;2022-12-18T22:07:16;56.43;;;25.10;;
28311;SDS011;15572;48.810;9.148;2022-12-18T22:12:14;56.53;;;24.83;;
28311;SDS011;15572;48.810;9.148;2022-12-18T22:17:29;57.83;;;24.27;;
28311;SDS011;15572;48.810;9.148;2022-12-18T22:22:25;59.27;;;25.60;;
28311;SDS011;15572;48.810;9.148;2022-12-18T22:27:23;57.83;;;23.67;;
28311;SDS011;15572;48.810;9.148;2022-12-18T22:32:19;56.20;;;24.17;;
28311;SDS011;15572;48.810;9.148;2022-12-18T22:37:16;56.90;;;24.43;;
28311;SDS011;15572;48.810;9.148;2022-12-18T22:42:12;56.60;;;24.47;;
28311;SDS011;15572;48.810;9.148;2022-12-18T22:47:10;59.50;;;25.73;;
28311;SDS011;15572;48.810;9.148;2022-12-18T22:52:07;53.37;;;25.07;;
28311;SDS011;15572;48.810;9.148;2022-12-18T22:57:05;59.63;;;25.60;;
28311;SDS011;15572;48.810;9.148;2022-12-18T23:02:01;53.37;;;24.23;;
28311;SDS011;15572;48.810;9.148;2022-12-18T23:06:59;56.17;;;25.40;;
28311;SDS011;15572;48.810;9.148;2022-12-18T23:11:55;60.50;;;26.07;;
28311;SDS011;15572;48.810;9.148;2022-12-18T23:16:52;54.17;;;24.23;;
28311;SDS011;15572;48.810;9.148;2022-12-18T23:21:48;59.73;;;24.17;;
28311;SDS011;15572;48.810;9.148;2022-12-18T23:26:46;57.70;;;25.07;;
28311;SDS011;15572;48.810;9.148;2022-12-18T23:31:43;60.47;;;25.40;;
28311;SDS011;15572;48.810;9.148;2022-12-18T23:36:39;61.03;;;25.93;;
28311;SDS011;15572;48.810;9.148;2022-12-18T23:41:36;58.90;;;24.30;;
28311;SDS011;15572;48.810;9.148;2022-12-18T23:46:34;56.43;;;24.53;;
28311;SDS011;15572;48.810;9.148;2022-12-18T23:51:31;49.07;;;22.53;;
28311;SDS011;15572;48.810;9.148;2022-12-18T23:56:28;52.70;;;23.03;;
